sensor_id;sensor_type;location;lat;lon;timestamp;P1;durP1;ratioP1;P2;durP2;ratioP2
65535;SDS011;52145;49.342;9.116;2022-07-29T00:02:06;4.63;;;1.73;;
65535;SDS011;52145;49.342;9.116;2022-07-29T00:04:34;3.53;;;1.98;;
65535;SDS011;52145;49.342;9.116;2022-07-29T00:07:00;5.80;;;2.03;;
65535;SDS011;52145;49.342;9.116;2022-07-29T00:09:26;5.47;;;2.03;;
65535;SDS011;52145;49.342;9.116;2022-07-29T00:11:52;6.32;;;2.22;;
65535;SDS011;52145;49.342;9.116;2022-07-29T00:14:20;4.38;;;1.88;;
65535;SDS011;52145;49.342;9.116;2022-07-29T00:16:45;4.28;;;2.38;;
65535;SDS011;52145;49.342;9.116;2022-07-29T00:19:11;4.82;;;1.98;;
65535;SDS011;52145;49.342;9.116;2022-07-29T00:21:36;2.80;;;1.70;;
65535;SDS011;52145;49.342;9.116;2022-07-29T00:24:02;6.10;;;1.95;;
65535;SDS011;52145;49.342;9.116;2022-07-29T00:26:28;4.07;;;2.03;;
65535;SDS011;52145;49.342;9.116;2022-07-29T00:28:57;3.47;;;2.13;;
65535;SDS011;52145;49.342;9.116;2022-07-29T00:31:26;6.82;;;2.17;;
65535;SDS011;52145;49.342;9.116;2022-07-29T00:33:52;4.85;;;2.20;;
65535;SDS011;52145;49.342;9.116;2022-07-29T00:36:17;5.43;;;2.22;;
65535;SDS011;52145;49.342;9.116;2022-07-29T00:38:43;5.93;;;1.95;;
65535;SDS011;52145;49.342;9.116;2022-07-29T00:41:10;6.25;;;1.90;;
65535;SDS011;52145;49.342;9.116;2022-07-29T00:43:36;5.57;;;2.08;;
65535;SDS011;52145;49.342;9.116;2022-07-29T00:46:02;6.25;;;1.80;;
65535;SDS011;52145;49.342;9.116;2022-07-29T00:48:28;7.50;;;2.05;;
65535;SDS011;52145;49.342;9.116;2022-07-29T00:50:53;3.90;;;2.17;;
65535;SDS011;52145;49.342;9.116;2022-07-29T00:53:20;6.55;;;1.98;;
65535;SDS011;52145;49.342;9.116;2022-07-29T00:55:46;2.70;;;1.83;;
65535;SDS011;52145;49.342;9.116;2022-07-29T00:58:12;3.80;;;2.25;;
65535;SDS011;52145;49.342;9.116;2022-07-29T01:00:41;4.18;;;1.80;;
65535;SDS011;52145;49.342;9.116;2022-07-29T01:03:07;5.53;;;1.73;;
65535;SDS011;52145;49.342;9.116;2022-07-29T01:05:33;6.20;;;1.90;;
65535;SDS011;52145;49.342;9.116;2022-07-29T01:08:00;6.75;;;2.53;;
65535;SDS011;52145;49.342;9.116;2022-07-29T01:10:27;6.05;;;1.90;;
65535;SDS011;52145;49.342;9.116;2022-07-29T01:12:54;6.90;;;1.83;;
65535;SDS011;52145;49.342;9.116;2022-07-29T01:15:23;3.65;;;1.85;;
65535;SDS011;52145;49.342;9.116;2022-07-29T01:18:01;4.78;;;2.25;;
65535;SDS011;52145;49.342;9.116;2022-07-29T01:20:42;6.88;;;2.05;;
65535;SDS011;52145;49.342;9.116;2022-07-29T01:23:52;4.03;;;1.80;;
65535;SDS011;52145;49.342;9.116;2022-07-29T01:34:23;5.38;;;1.98;;
65535;SDS011;52145;49.342;9.116;2022-07-29T01:36:55;4.47;;;1.70;;
65535;SDS011;52145;49.342;9.116;2022-07-29T01:39:36;4.03;;;2.03;;
65535;SDS011;52145;49.342;9.116;2022-07-29T01:42:20;3.42;;;2.00;;
65535;SDS011;52145;49.342;9.116;2022-07-29T01:45:14;6.03;;;2.10;;
65535;SDS011;52145;49.342;9.116;2022-07-29T01:47:44;4.53;;;2.03;;
65535;SDS011;52145;49.342;9.116;2022-07-29T01:50:18;3.17;;;1.88;;
65535;SDS011;52145;49.342;9.116;2022-07-29T01:53:05;4.82;;;2.00;;
65535;SDS011;52145;49.342;9.116;2022-07-29T01:55:35;7.10;;;2.25;;
65535;SDS011;52145;49.342;9.116;2022-07-29T01:58:05;3.75;;;1.70;;
65535;SDS011;52145;49.342;9.116;2022-07-29T02:00:33;4.28;;;1.90;;
65535;SDS011;52145;49.342;9.116;2022-07-29T02:03:01;5.47;;;2.00;;
65535;SDS011;52145;49.342;9.116;2022-07-29T02:05:31;6.55;;;2.22;;
65535;SDS011;52145;49.342;9.116;2022-07-29T02:07:58;3.92;;;2.08;;
65535;SDS011;52145;49.342;9.116;2022-07-29T02:10:27;4.30;;;2.05;;
65535;SDS011;52145;49.342;9.116;2022-07-29T02:12:54;3.78;;;2.10;;
65535;SDS011;52145;49.342;9.116;2022-07-29T02:15:22;4.70;;;2.20;;
65535;SDS011;52145;49.342;9.116;2022-07-29T02:17:51;5.07;;;2.25;;
65535;SDS011;52145;49.342;9.116;2022-07-29T02:20:23;4.85;;;2.38;;
65535;SDS011;52145;49.342;9.116;2022-07-29T02:22:51;4.85;;;2.00;;
65535;SDS011;52145;49.342;9.116;2022-07-29T02:25:18;5.20;;;2.22;;
65535;SDS011;52145;49.342;9.116;2022-07-29T02:27:46;8.57;;;2.15;;
65535;SDS011;52145;49.342;9.116;2022-07-29T02:30:15;5.70;;;2.15;;
65535;SDS011;52145;49.342;9.116;2022-07-29T02:32:42;7.03;;;2.40;;
65535;SDS011;52145;49.342;9.116;2022-07-29T02:35:10;4.68;;;1.95;;
65535;SDS011;52145;49.342;9.116;2022-07-29T02:37:39;6.22;;;2.47;;
65535;SDS011;52145;49.342;9.116;2022-07-29T02:40:06;4.97;;;2.20;;
65535;SDS011;52145;49.342;9.116;2022-07-29T02:42:35;8.23;;;2.60;;
65535;SDS011;52145;49.342;9.116;2022-07-29T02:45:04;3.85;;;2.08;;
65535;SDS011;52145;49.342;9.116;2022-07-29T02:47:31;4.40;;;2.00;;
65535;SDS011;52145;49.342;9.116;2022-07-29T02:52:58;3.95;;;2.22;;
65535;SDS011;52145;49.342;9.116;2022-07-29T02:58:03;3.72;;;2.10;;
65535;SDS011;52145;49.342;9.116;2022-07-29T03:00:53;3.97;;;1.95;;
65535;SDS011;52145;49.342;9.116;2022-07-29T03:03:22;4.75;;;2.15;;
65535;SDS011;52145;49.342;9.116;2022-07-29T03:05:57;5.15;;;2.00;;
65535;SDS011;52145;49.342;9.116;2022-07-29T03:08:24;11.18;;;2.20;;
65535;SDS011;52145;49.342;9.116;2022-07-29T03:10:51;2.92;;;1.90;;
65535;SDS011;52145;49.342;9.116;2022-07-29T03:13:17;4.68;;;2.22;;
65535;SDS011;52145;49.342;9.116;2022-07-29T03:15:44;3.72;;;2.35;;
65535;SDS011;52145;49.342;9.116;2022-07-29T03:18:10;7.25;;;2.60;;
65535;SDS011;52145;49.342;9.116;2022-07-29T03:20:37;5.57;;;2.30;;
65535;SDS011;52145;49.342;9.116;2022-07-29T03:23:03;5.35;;;2.17;;
65535;SDS011;52145;49.342;9.116;2022-07-29T03:25:29;6.72;;;2.47;;
65535;SDS011;52145;49.342;9.116;2022-07-29T03:27:55;5.57;;;2.67;;
65535;SDS011;52145;49.342;9.116;2022-07-29T03:30:21;7.38;;;2.55;;
65535;SDS011;52145;49.342;9.116;2022-07-29T03:32:48;6.00;;;2.72;;
65535;SDS011;52145;49.342;9.116;2022-07-29T03:35:14;4.60;;;2.28;;
65535;SDS011;52145;49.342;9.116;2022-07-29T03:37:41;5.20;;;2.30;;
65535;SDS011;52145;49.342;9.116;2022-07-29T03:40:07;5.10;;;2.63;;
65535;SDS011;52145;49.342;9.116;2022-07-29T03:42:35;5.88;;;2.45;;
65535;SDS011;52145;49.342;9.116;2022-07-29T03:45:07;5.18;;;2.42;;
65535;SDS011;52145;49.342;9.116;2022-07-29T03:47:38;4.35;;;2.33;;
65535;SDS011;52145;49.342;9.116;2022-07-29T03:50:08;4.03;;;2.40;;
65535;SDS011;52145;49.342;9.116;2022-07-29T03:52:36;3.92;;;2.10;;
65535;SDS011;52145;49.342;9.116;2022-07-29T03:55:02;5.13;;;2.22;;
65535;SDS011;52145;49.342;9.116;2022-07-29T03:57:28;3.90;;;2.42;;
65535;SDS011;52145;49.342;9.116;2022-07-29T03:59:56;4.40;;;2.30;;
65535;SDS011;52145;49.342;9.116;2022-07-29T04:02:22;7.22;;;2.50;;
65535;SDS011;52145;49.342;9.116;2022-07-29T04:04:50;4.28;;;2.25;;
65535;SDS011;52145;49.342;9.116;2022-07-29T04:07:15;4.55;;;2.10;;
65535;SDS011;52145;49.342;9.116;2022-07-29T04:09:41;4.38;;;2.53;;
65535;SDS011;52145;49.342;9.116;2022-07-29T04:12:07;4.28;;;2.17;;
65535;SDS011;52145;49.342;9.116;2022-07-29T04:14:33;4.57;;;2.35;;
65535;SDS011;52145;49.342;9.116;2022-07-29T04:17:00;7.22;;;2.58;;
65535;SDS011;52145;49.342;9.116;2022-07-29T04:19:26;3.75;;;2.30;;
65535;SDS011;52145;49.342;9.116;2022-07-29T04:21:52;6.50;;;2.72;;
65535;SDS011;52145;49.342;9.116;2022-07-29T04:24:18;5.90;;;2.83;;
65535;SDS011;52145;49.342;9.116;2022-07-29T04:26:44;7.03;;;2.70;;
65535;SDS011;52145;49.342;9.116;2022-07-29T04:29:10;8.85;;;3.10;;
65535;SDS011;52145;49.342;9.116;2022-07-29T04:31:36;4.93;;;2.95;;
65535;SDS011;52145;49.342;9.116;2022-07-29T04:34:02;5.68;;;3.17;;
65535;SDS011;52145;49.342;9.116;2022-07-29T04:36:28;5.45;;;2.55;;
65535;SDS011;52145;49.342;9.116;2022-07-29T04:38:53;4.72;;;2.80;;
65535;SDS011;52145;49.342;9.116;2022-07-29T04:41:19;6.82;;;3.15;;
65535;SDS011;52145;49.342;9.116;2022-07-29T04:43:44;7.75;;;2.95;;
65535;SDS011;52145;49.342;9.116;2022-07-29T04:46:10;8.73;;;2.80;;
65535;SDS011;52145;49.342;9.116;2022-07-29T04:48:35;4.68;;;2.80;;
65535;SDS011;52145;49.342;9.116;2022-07-29T04:51:01;7.43;;;2.67;;
65535;SDS011;52145;49.342;9.116;2022-07-29T04:53:27;6.47;;;2.45;;
65535;SDS011;52145;49.342;9.116;2022-07-29T04:55:52;9.10;;;2.28;;
65535;SDS011;52145;49.342;9.116;2022-07-29T04:58:18;6.32;;;2.30;;
65535;SDS011;52145;49.342;9.116;2022-07-29T05:00:43;7.95;;;2.30;;
65535;SDS011;52145;49.342;9.116;2022-07-29T05:03:09;6.65;;;2.65;;
65535;SDS011;52145;49.342;9.116;2022-07-29T05:05:34;5.10;;;2.53;;
65535;SDS011;52145;49.342;9.116;2022-07-29T05:08:00;7.03;;;2.78;;
65535;SDS011;52145;49.342;9.116;2022-07-29T05:10:26;4.43;;;2.30;;
65535;SDS011;52145;49.342;9.116;2022-07-29T05:12:51;4.78;;;2.53;;
65535;SDS011;52145;49.342;9.116;2022-07-29T05:15:17;5.15;;;2.58;;
65535;SDS011;52145;49.342;9.116;2022-07-29T05:17:43;7.85;;;2.83;;
65535;SDS011;52145;49.342;9.116;2022-07-29T05:20:09;6.80;;;3.15;;
65535;SDS011;52145;49.342;9.116;2022-07-29T05:22:35;8.02;;;3.33;;
65535;SDS011;52145;49.342;9.116;2022-07-29T05:25:00;6.82;;;2.83;;
65535;SDS011;52145;49.342;9.116;2022-07-29T05:27:27;7.50;;;3.15;;
65535;SDS011;52145;49.342;9.116;2022-07-29T05:29:52;12.43;;;3.42;;
65535;SDS011;52145;49.342;9.116;2022-07-29T05:32:18;10.00;;;3.15;;
65535;SDS011;52145;49.342;9.116;2022-07-29T05:34:44;14.55;;;3.58;;
65535;SDS011;52145;49.342;9.116;2022-07-29T05:37:09;10.65;;;3.88;;
65535;SDS011;52145;49.342;9.116;2022-07-29T05:39:35;9.13;;;3.05;;
65535;SDS011;52145;49.342;9.116;2022-07-29T05:42:01;10.13;;;3.50;;
65535;SDS011;52145;49.342;9.116;2022-07-29T05:44:26;9.05;;;2.65;;
65535;SDS011;52145;49.342;9.116;2022-07-29T05:46:52;7.20;;;2.53;;
65535;SDS011;52145;49.342;9.116;2022-07-29T05:49:18;12.20;;;7.18;;
65535;SDS011;52145;49.342;9.116;2022-07-29T05:51:43;25.45;;;11.30;;
65535;SDS011;52145;49.342;9.116;2022-07-29T05:54:09;13.32;;;4.53;;
65535;SDS011;52145;49.342;9.116;2022-07-29T05:56:35;7.80;;;4.05;;
65535;SDS011;52145;49.342;9.116;2022-07-29T05:59:02;6.72;;;2.70;;
65535;SDS011;52145;49.342;9.116;2022-07-29T06:01:28;7.93;;;3.42;;
65535;SDS011;52145;49.342;9.116;2022-07-29T06:03:53;5.68;;;2.88;;
65535;SDS011;52145;49.342;9.116;2022-07-29T06:06:19;12.50;;;3.00;;
65535;SDS011;52145;49.342;9.116;2022-07-29T06:08:45;5.97;;;3.22;;
65535;SDS011;52145;49.342;9.116;2022-07-29T06:11:10;6.57;;;2.63;;
65535;SDS011;52145;49.342;9.116;2022-07-29T06:13:36;6.57;;;2.35;;
65535;SDS011;52145;49.342;9.116;2022-07-29T06:16:01;9.10;;;2.45;;
65535;SDS011;52145;49.342;9.116;2022-07-29T06:18:27;7.68;;;2.22;;
65535;SDS011;52145;49.342;9.116;2022-07-29T06:20:53;6.53;;;2.75;;
65535;SDS011;52145;49.342;9.116;2022-07-29T06:23:19;6.53;;;2.67;;
65535;SDS011;52145;49.342;9.116;2022-07-29T06:25:46;8.27;;;3.17;;
65535;SDS011;52145;49.342;9.116;2022-07-29T06:28:11;8.57;;;2.90;;
65535;SDS011;52145;49.342;9.116;2022-07-29T06:30:37;4.55;;;2.40;;
65535;SDS011;52145;49.342;9.116;2022-07-29T06:33:04;5.60;;;2.20;;
65535;SDS011;52145;49.342;9.116;2022-07-29T06:35:30;6.95;;;2.47;;
65535;SDS011;52145;49.342;9.116;2022-07-29T06:37:57;9.25;;;2.63;;
65535;SDS011;52145;49.342;9.116;2022-07-29T06:40:23;7.88;;;2.40;;
65535;SDS011;52145;49.342;9.116;2022-07-29T06:43:07;6.32;;;2.55;;
65535;SDS011;52145;49.342;9.116;2022-07-29T06:45:36;4.63;;;2.30;;
65535;SDS011;52145;49.342;9.116;2022-07-29T06:48:01;5.88;;;2.70;;
65535;SDS011;52145;49.342;9.116;2022-07-29T06:50:27;4.47;;;2.15;;
65535;SDS011;52145;49.342;9.116;2022-07-29T06:52:52;5.65;;;2.70;;
65535;SDS011;52145;49.342;9.116;2022-07-29T06:55:18;4.18;;;2.10;;
65535;SDS011;52145;49.342;9.116;2022-07-29T06:57:44;6.97;;;2.15;;
65535;SDS011;52145;49.342;9.116;2022-07-29T07:00:10;5.20;;;2.35;;
65535;SDS011;52145;49.342;9.116;2022-07-29T07:02:36;5.30;;;2.17;;
65535;SDS011;52145;49.342;9.116;2022-07-29T07:05:02;5.47;;;2.55;;
65535;SDS011;52145;49.342;9.116;2022-07-29T07:07:27;4.53;;;2.67;;
65535;SDS011;52145;49.342;9.116;2022-07-29T07:09:53;8.32;;;2.78;;
65535;SDS011;52145;49.342;9.116;2022-07-29T07:12:18;6.57;;;2.60;;
65535;SDS011;52145;49.342;9.116;2022-07-29T07:14:44;6.20;;;2.78;;
65535;SDS011;52145;49.342;9.116;2022-07-29T07:17:10;6.55;;;2.53;;
65535;SDS011;52145;49.342;9.116;2022-07-29T07:19:35;5.13;;;2.58;;
65535;SDS011;52145;49.342;9.116;2022-07-29T07:22:01;5.93;;;2.33;;
65535;SDS011;52145;49.342;9.116;2022-07-29T07:24:26;6.00;;;2.80;;
65535;SDS011;52145;49.342;9.116;2022-07-29T07:26:52;7.82;;;2.60;;
65535;SDS011;52145;49.342;9.116;2022-07-29T07:29:18;7.88;;;3.08;;
65535;SDS011;52145;49.342;9.116;2022-07-29T07:31:43;11.73;;;2.92;;
65535;SDS011;52145;49.342;9.116;2022-07-29T07:34:09;8.98;;;2.40;;
65535;SDS011;52145;49.342;9.116;2022-07-29T07:36:34;16.00;;;4.70;;
65535;SDS011;52145;49.342;9.116;2022-07-29T07:39:00;14.65;;;4.57;;
65535;SDS011;52145;49.342;9.116;2022-07-29T07:41:25;11.82;;;2.85;;
65535;SDS011;52145;49.342;9.116;2022-07-29T07:43:51;10.85;;;2.80;;
65535;SDS011;52145;49.342;9.116;2022-07-29T07:46:16;10.40;;;3.20;;
65535;SDS011;52145;49.342;9.116;2022-07-29T07:48:42;6.90;;;2.70;;
65535;SDS011;52145;49.342;9.116;2022-07-29T07:51:08;4.75;;;2.88;;
65535;SDS011;52145;49.342;9.116;2022-07-29T07:53:33;6.07;;;2.63;;
65535;SDS011;52145;49.342;9.116;2022-07-29T07:56:00;4.35;;;2.63;;
65535;SDS011;52145;49.342;9.116;2022-07-29T07:58:25;4.15;;;2.20;;
65535;SDS011;52145;49.342;9.116;2022-07-29T08:00:51;6.85;;;2.65;;
65535;SDS011;52145;49.342;9.116;2022-07-29T08:03:16;4.15;;;2.95;;
65535;SDS011;52145;49.342;9.116;2022-07-29T08:05:42;4.72;;;3.15;;
65535;SDS011;52145;49.342;9.116;2022-07-29T08:08:08;6.00;;;3.30;;
65535;SDS011;52145;49.342;9.116;2022-07-29T08:10:33;6.53;;;3.15;;
65535;SDS011;52145;49.342;9.116;2022-07-29T08:13:18;7.47;;;2.92;;
65535;SDS011;52145;49.342;9.116;2022-07-29T08:15:44;3.83;;;2.83;;
65535;SDS011;52145;49.342;9.116;2022-07-29T08:18:11;6.38;;;3.15;;
65535;SDS011;52145;49.342;9.116;2022-07-29T08:20:37;6.18;;;2.55;;
65535;SDS011;52145;49.342;9.116;2022-07-29T08:23:04;5.55;;;2.83;;
65535;SDS011;52145;49.342;9.116;2022-07-29T08:25:31;4.15;;;2.70;;
65535;SDS011;52145;49.342;9.116;2022-07-29T08:27:58;5.80;;;3.10;;
65535;SDS011;52145;49.342;9.116;2022-07-29T08:30:23;7.00;;;3.03;;
65535;SDS011;52145;49.342;9.116;2022-07-29T08:32:49;5.30;;;2.58;;
65535;SDS011;52145;49.342;9.116;2022-07-29T08:35:17;9.82;;;2.75;;
65535;SDS011;52145;49.342;9.116;2022-07-29T08:37:47;6.07;;;3.10;;
65535;SDS011;52145;49.342;9.116;2022-07-29T08:40:12;9.18;;;3.05;;
65535;SDS011;52145;49.342;9.116;2022-07-29T08:42:39;4.63;;;3.30;;
65535;SDS011;52145;49.342;9.116;2022-07-29T08:45:05;4.53;;;2.80;;
65535;SDS011;52145;49.342;9.116;2022-07-29T08:47:31;5.60;;;3.22;;
65535;SDS011;52145;49.342;9.116;2022-07-29T08:49:58;7.30;;;3.10;;
65535;SDS011;52145;49.342;9.116;2022-07-29T08:52:25;9.85;;;5.95;;
65535;SDS011;52145;49.342;9.116;2022-07-29T08:54:51;6.38;;;3.05;;
65535;SDS011;52145;49.342;9.116;2022-07-29T08:57:18;6.68;;;3.25;;
65535;SDS011;52145;49.342;9.116;2022-07-29T08:59:44;7.05;;;3.20;;
65535;SDS011;52145;49.342;9.116;2022-07-29T09:02:18;5.38;;;3.40;;
65535;SDS011;52145;49.342;9.116;2022-07-29T09:04:45;4.28;;;3.00;;
65535;SDS011;52145;49.342;9.116;2022-07-29T09:07:14;3.60;;;2.88;;
65535;SDS011;52145;49.342;9.116;2022-07-29T09:09:41;7.15;;;3.50;;
65535;SDS011;52145;49.342;9.116;2022-07-29T09:12:08;6.30;;;3.30;;
65535;SDS011;52145;49.342;9.116;2022-07-29T09:14:37;8.35;;;3.95;;
65535;SDS011;52145;49.342;9.116;2022-07-29T09:17:03;7.82;;;3.55;;
65535;SDS011;52145;49.342;9.116;2022-07-29T09:19:32;7.65;;;3.15;;
65535;SDS011;52145;49.342;9.116;2022-07-29T09:22:06;4.68;;;3.13;;
65535;SDS011;52145;49.342;9.116;2022-07-29T09:24:39;9.05;;;3.47;;
65535;SDS011;52145;49.342;9.116;2022-07-29T09:27:10;6.63;;;3.40;;
65535;SDS011;52145;49.342;9.116;2022-07-29T09:29:43;5.40;;;3.25;;
65535;SDS011;52145;49.342;9.116;2022-07-29T09:32:09;6.88;;;3.45;;
65535;SDS011;52145;49.342;9.116;2022-07-29T09:34:38;7.22;;;3.58;;
65535;SDS011;52145;49.342;9.116;2022-07-29T09:37:04;4.68;;;3.72;;
65535;SDS011;52145;49.342;9.116;2022-07-29T09:41:56;9.02;;;3.60;;
65535;SDS011;52145;49.342;9.116;2022-07-29T09:44:24;8.43;;;3.53;;
65535;SDS011;52145;49.342;9.116;2022-07-29T09:49:20;8.48;;;3.38;;
65535;SDS011;52145;49.342;9.116;2022-07-29T09:51:46;6.13;;;3.70;;
65535;SDS011;52145;49.342;9.116;2022-07-29T09:54:24;8.27;;;3.70;;
65535;SDS011;52145;49.342;9.116;2022-07-29T09:56:51;9.10;;;4.32;;
65535;SDS011;52145;49.342;9.116;2022-07-29T09:59:17;7.68;;;3.97;;
65535;SDS011;52145;49.342;9.116;2022-07-29T10:01:45;11.05;;;4.50;;
65535;SDS011;52145;49.342;9.116;2022-07-29T10:04:11;9.63;;;4.00;;
65535;SDS011;52145;49.342;9.116;2022-07-29T10:06:54;5.85;;;3.20;;
65535;SDS011;52145;49.342;9.116;2022-07-29T10:09:24;6.13;;;3.67;;
65535;SDS011;52145;49.342;9.116;2022-07-29T10:14:36;10.25;;;3.92;;
65535;SDS011;52145;49.342;9.116;2022-07-29T10:17:03;11.18;;;4.05;;
65535;SDS011;52145;49.342;9.116;2022-07-29T10:19:30;7.80;;;3.60;;
65535;SDS011;52145;49.342;9.116;2022-07-29T10:22:00;6.88;;;3.92;;
65535;SDS011;52145;49.342;9.116;2022-07-29T10:24:28;7.95;;;3.90;;
65535;SDS011;52145;49.342;9.116;2022-07-29T10:26:55;9.02;;;3.65;;
65535;SDS011;52145;49.342;9.116;2022-07-29T10:29:22;11.50;;;3.90;;
65535;SDS011;52145;49.342;9.116;2022-07-29T10:37:46;6.63;;;3.97;;
65535;SDS011;52145;49.342;9.116;2022-07-29T10:43:27;9.27;;;3.88;;
65535;SDS011;52145;49.342;9.116;2022-07-29T10:45:58;7.43;;;4.15;;
65535;SDS011;52145;49.342;9.116;2022-07-29T10:48:25;8.07;;;4.00;;
65535;SDS011;52145;49.342;9.116;2022-07-29T10:51:01;7.90;;;3.80;;
65535;SDS011;52145;49.342;9.116;2022-07-29T10:56:26;6.20;;;3.70;;
65535;SDS011;52145;49.342;9.116;2022-07-29T11:01:51;9.25;;;4.35;;
65535;SDS011;52145;49.342;9.116;2022-07-29T11:07:08;7.38;;;4.00;;
65535;SDS011;52145;49.342;9.116;2022-07-29T11:09:33;8.65;;;4.25;;
65535;SDS011;52145;49.342;9.116;2022-07-29T11:11:59;8.70;;;4.57;;
65535;SDS011;52145;49.342;9.116;2022-07-29T11:17:27;6.80;;;4.05;;
65535;SDS011;52145;49.342;9.116;2022-07-29T11:22:56;10.60;;;4.70;;
65535;SDS011;52145;49.342;9.116;2022-07-29T11:25:23;6.95;;;4.43;;
65535;SDS011;52145;49.342;9.116;2022-07-29T11:27:49;8.25;;;4.32;;
65535;SDS011;52145;49.342;9.116;2022-07-29T11:30:16;5.53;;;4.07;;
65535;SDS011;52145;49.342;9.116;2022-07-29T11:32:42;8.30;;;4.30;;
65535;SDS011;52145;49.342;9.116;2022-07-29T11:37:42;9.70;;;3.95;;
65535;SDS011;52145;49.342;9.116;2022-07-29T11:40:10;6.53;;;4.05;;
65535;SDS011;52145;49.342;9.116;2022-07-29T11:42:37;7.28;;;4.00;;
65535;SDS011;52145;49.342;9.116;2022-07-29T11:47:51;7.38;;;3.88;;
65535;SDS011;52145;49.342;9.116;2022-07-29T11:50:27;7.10;;;3.85;;
65535;SDS011;52145;49.342;9.116;2022-07-29T11:52:52;8.85;;;3.50;;
65535;SDS011;52145;49.342;9.116;2022-07-29T11:55:19;7.50;;;3.47;;
65535;SDS011;52145;49.342;9.116;2022-07-29T11:58:08;6.47;;;3.70;;
65535;SDS011;52145;49.342;9.116;2022-07-29T12:00:34;8.10;;;3.80;;
65535;SDS011;52145;49.342;9.116;2022-07-29T12:03:05;6.97;;;3.35;;
65535;SDS011;52145;49.342;9.116;2022-07-29T12:08:14;12.13;;;3.80;;
65535;SDS011;52145;49.342;9.116;2022-07-29T12:10:44;6.22;;;3.38;;
65535;SDS011;52145;49.342;9.116;2022-07-29T12:13:11;5.70;;;3.70;;
65535;SDS011;52145;49.342;9.116;2022-07-29T12:15:38;7.13;;;3.72;;
65535;SDS011;52145;49.342;9.116;2022-07-29T12:18:12;7.22;;;3.50;;
65535;SDS011;52145;49.342;9.116;2022-07-29T12:20:39;8.20;;;3.95;;
65535;SDS011;52145;49.342;9.116;2022-07-29T12:23:06;6.38;;;3.72;;
65535;SDS011;52145;49.342;9.116;2022-07-29T12:25:34;9.95;;;4.70;;
65535;SDS011;52145;49.342;9.116;2022-07-29T12:28:04;5.35;;;3.75;;
65535;SDS011;52145;49.342;9.116;2022-07-29T12:30:39;4.68;;;3.60;;
65535;SDS011;52145;49.342;9.116;2022-07-29T12:33:26;8.93;;;3.80;;
65535;SDS011;52145;49.342;9.116;2022-07-29T12:35:56;7.85;;;3.60;;
65535;SDS011;52145;49.342;9.116;2022-07-29T12:38:23;4.88;;;3.63;;
65535;SDS011;52145;49.342;9.116;2022-07-29T12:40:49;7.88;;;3.50;;
65535;SDS011;52145;49.342;9.116;2022-07-29T12:43:18;6.25;;;3.50;;
65535;SDS011;52145;49.342;9.116;2022-07-29T12:45:51;6.90;;;3.65;;
65535;SDS011;52145;49.342;9.116;2022-07-29T12:48:37;7.15;;;3.67;;
65535;SDS011;52145;49.342;9.116;2022-07-29T12:51:05;7.53;;;3.63;;
65535;SDS011;52145;49.342;9.116;2022-07-29T12:53:32;6.78;;;3.70;;
65535;SDS011;52145;49.342;9.116;2022-07-29T12:55:59;8.25;;;4.05;;
65535;SDS011;52145;49.342;9.116;2022-07-29T12:58:38;5.35;;;3.13;;
65535;SDS011;52145;49.342;9.116;2022-07-29T13:01:09;6.60;;;3.50;;
65535;SDS011;52145;49.342;9.116;2022-07-29T13:09:01;5.03;;;3.65;;
65535;SDS011;52145;49.342;9.116;2022-07-29T13:11:39;5.68;;;3.63;;
65535;SDS011;52145;49.342;9.116;2022-07-29T13:14:07;6.47;;;3.58;;
65535;SDS011;52145;49.342;9.116;2022-07-29T13:16:34;6.93;;;3.40;;
65535;SDS011;52145;49.342;9.116;2022-07-29T13:19:04;6.63;;;3.28;;
65535;SDS011;52145;49.342;9.116;2022-07-29T13:21:31;9.63;;;3.80;;
65535;SDS011;52145;49.342;9.116;2022-07-29T13:23:57;8.93;;;4.20;;
65535;SDS011;52145;49.342;9.116;2022-07-29T13:26:22;6.88;;;3.53;;
65535;SDS011;52145;49.342;9.116;2022-07-29T13:28:48;6.00;;;3.80;;
65535;SDS011;52145;49.342;9.116;2022-07-29T13:31:13;6.80;;;3.78;;
65535;SDS011;52145;49.342;9.116;2022-07-29T13:33:39;6.38;;;3.60;;
65535;SDS011;52145;49.342;9.116;2022-07-29T13:36:04;6.57;;;3.30;;
65535;SDS011;52145;49.342;9.116;2022-07-29T13:38:30;12.85;;;6.18;;
65535;SDS011;52145;49.342;9.116;2022-07-29T13:40:56;7.03;;;3.50;;
65535;SDS011;52145;49.342;9.116;2022-07-29T13:43:21;8.65;;;3.53;;
65535;SDS011;52145;49.342;9.116;2022-07-29T13:45:47;5.10;;;3.08;;
65535;SDS011;52145;49.342;9.116;2022-07-29T13:48:13;5.55;;;3.35;;
65535;SDS011;52145;49.342;9.116;2022-07-29T13:50:38;8.48;;;3.78;;
65535;SDS011;52145;49.342;9.116;2022-07-29T13:53:04;8.70;;;3.28;;
65535;SDS011;52145;49.342;9.116;2022-07-29T13:55:29;9.20;;;3.13;;
65535;SDS011;52145;49.342;9.116;2022-07-29T13:57:55;6.22;;;3.50;;
65535;SDS011;52145;49.342;9.116;2022-07-29T14:00:20;9.25;;;3.22;;
65535;SDS011;52145;49.342;9.116;2022-07-29T14:02:46;4.10;;;2.75;;
65535;SDS011;52145;49.342;9.116;2022-07-29T14:05:11;6.85;;;3.08;;
65535;SDS011;52145;49.342;9.116;2022-07-29T14:07:37;5.90;;;3.03;;
65535;SDS011;52145;49.342;9.116;2022-07-29T14:10:06;6.30;;;3.00;;
65535;SDS011;52145;49.342;9.116;2022-07-29T14:12:32;11.02;;;3.33;;
65535;SDS011;52145;49.342;9.116;2022-07-29T14:14:58;10.55;;;3.95;;
65535;SDS011;52145;49.342;9.116;2022-07-29T14:17:23;5.95;;;3.53;;
65535;SDS011;52145;49.342;9.116;2022-07-29T14:19:49;5.32;;;3.22;;
65535;SDS011;52145;49.342;9.116;2022-07-29T14:22:14;6.50;;;3.47;;
65535;SDS011;52145;49.342;9.116;2022-07-29T14:24:40;8.23;;;3.53;;
65535;SDS011;52145;49.342;9.116;2022-07-29T14:27:06;8.88;;;3.50;;
65535;SDS011;52145;49.342;9.116;2022-07-29T14:29:32;6.88;;;3.20;;
65535;SDS011;52145;49.342;9.116;2022-07-29T14:31:58;5.50;;;3.35;;
65535;SDS011;52145;49.342;9.116;2022-07-29T14:34:24;7.55;;;3.40;;
65535;SDS011;52145;49.342;9.116;2022-07-29T14:36:49;7.18;;;3.38;;
65535;SDS011;52145;49.342;9.116;2022-07-29T14:39:15;12.60;;;3.75;;
65535;SDS011;52145;49.342;9.116;2022-07-29T14:41:41;5.40;;;3.13;;
65535;SDS011;52145;49.342;9.116;2022-07-29T14:44:07;5.22;;;3.22;;
65535;SDS011;52145;49.342;9.116;2022-07-29T14:46:33;5.82;;;3.13;;
65535;SDS011;52145;49.342;9.116;2022-07-29T14:48:59;5.68;;;3.40;;
65535;SDS011;52145;49.342;9.116;2022-07-29T14:51:24;9.13;;;3.65;;
65535;SDS011;52145;49.342;9.116;2022-07-29T14:53:50;9.63;;;3.67;;
65535;SDS011;52145;49.342;9.116;2022-07-29T14:56:15;12.57;;;3.83;;
65535;SDS011;52145;49.342;9.116;2022-07-29T14:58:41;7.55;;;3.42;;
65535;SDS011;52145;49.342;9.116;2022-07-29T15:01:06;9.00;;;3.42;;
65535;SDS011;52145;49.342;9.116;2022-07-29T15:03:32;7.38;;;3.22;;
65535;SDS011;52145;49.342;9.116;2022-07-29T15:05:57;6.82;;;3.50;;
65535;SDS011;52145;49.342;9.116;2022-07-29T15:08:23;6.32;;;3.17;;
65535;SDS011;52145;49.342;9.116;2022-07-29T15:10:50;7.90;;;3.65;;
65535;SDS011;52145;49.342;9.116;2022-07-29T15:13:16;5.57;;;3.13;;
65535;SDS011;52145;49.342;9.116;2022-07-29T15:15:41;7.00;;;3.42;;
65535;SDS011;52145;49.342;9.116;2022-07-29T15:18:07;4.25;;;3.50;;
65535;SDS011;52145;49.342;9.116;2022-07-29T15:20:34;5.65;;;3.45;;
65535;SDS011;52145;49.342;9.116;2022-07-29T15:22:59;6.80;;;3.08;;
65535;SDS011;52145;49.342;9.116;2022-07-29T15:25:25;4.32;;;2.85;;
65535;SDS011;52145;49.342;9.116;2022-07-29T15:27:51;8.25;;;3.65;;
65535;SDS011;52145;49.342;9.116;2022-07-29T15:30:17;13.27;;;3.20;;
65535;SDS011;52145;49.342;9.116;2022-07-29T15:32:43;6.22;;;2.80;;
65535;SDS011;52145;49.342;9.116;2022-07-29T15:35:09;7.63;;;2.83;;
65535;SDS011;52145;49.342;9.116;2022-07-29T15:37:37;6.22;;;2.90;;
65535;SDS011;52145;49.342;9.116;2022-07-29T15:40:04;7.55;;;2.88;;
65535;SDS011;52145;49.342;9.116;2022-07-29T15:42:30;5.35;;;2.88;;
65535;SDS011;52145;49.342;9.116;2022-07-29T15:44:56;5.03;;;2.85;;
65535;SDS011;52145;49.342;9.116;2022-07-29T15:47:22;6.70;;;3.13;;